Time;durP1;ratioP1;P1;durP2;ratioP2;P2;SDS_P1;SDS_P2;PMS_P1;PMS_P2;Temp;Humidity;BMP_temperature;BMP_pressure;BME280_temperature;BME280_humidity;BME280_pressure;Samples;Min_cycle;Max_cycle;Signal;HPM_P1;HPM_P2
2023/11/29 00:01:26;;;;;;;;;;;;;;;17.01;22.76;96736.59;5088510;28;19965;-85
2023/11/29 00:03:52;;;;;;;;;;;;;;;16.70;23.45;96739.84;5087610;28;19924;-85
2023/11/29 00:06:18;;;;;;;;;;;;;;;17.40;22.63;96738.75;5096305;28;20336;-84
2023/11/29 00:08:44;;;;;;;;;;;;;;;17.85;22.09;96745.50;5093933;28;20015;-84
2023/11/29 00:11:11;;;;;;;;;;;;;;;18.63;21.23;96746.78;5095498;28;19919;-85
2023/11/29 00:13:37;;;;;;;;;;;;;;;19.35;20.57;96750.31;5092426;28;20001;-85
2023/11/29 00:16:03;;;;;;;;;;;;;;;19.59;20.17;96765.66;5095508;28;19924;-85
2023/11/29 00:18:29;;;;;;;;;;;;;;;19.98;19.58;96765.44;5094745;28;19928;-85
2023/11/29 00:20:55;;;;;;;;;;;;;;;19.77;19.98;96773.53;5090849;28;19920;-85
2023/11/29 00:23:21;;;;;;;;;;;;;;;19.91;19.89;96773.97;5095102;28;19924;-85
2023/11/29 00:25:47;;;;;;;;;;;;;;;19.12;20.58;96776.28;5073230;28;20025;-85
2023/11/29 00:28:13;;;;;;;;;;;;;;;19.50;20.14;96776.63;5091536;28;19920;-85
2023/11/29 00:30:39;;;;;;;;;;;;;;;18.82;20.93;96779.34;5092267;28;19920;-85
2023/11/29 00:33:05;;;;;;;;;;;;;;;18.68;20.76;96778.84;5092121;28;19920;-85
2023/11/29 00:35:32;;;;;;;;;;;;;;;18.56;20.97;96788.63;5078727;28;19916;-85
2023/11/29 00:37:58;;;;;;;;;;;;;;;19.21;20.23;96790.38;5093870;28;19920;-85
2023/11/29 00:40:24;;;;;;;;;;;;;;;19.48;20.00;96787.41;5096792;28;20018;-85
2023/11/29 00:42:50;;;;;;;;;;;;;;;19.39;19.98;96790.00;5096470;28;19994;-85
2023/11/29 00:45:16;;;;;;;;;;;;;;;19.12;20.33;96795.75;5080248;28;20443;-85
2023/11/29 00:47:42;;;;;;;;;;;;;;;18.88;20.62;96804.66;5087933;28;20007;-85
2023/11/29 00:50:08;;;;;;;;;;;;;;;19.12;20.46;96809.66;5088743;28;20338;-85
2023/11/29 00:52:34;;;;;;;;;;;;;;;19.57;20.01;96809.06;5084445;28;20379;-85
2023/11/29 00:55:01;;;;;;;;;;;;;;;19.52;19.98;96820.72;5091802;28;19916;-85
2023/11/29 00:57:27;;;;;;;;;;;;;;;19.55;20.08;96825.41;5087123;28;19927;-85
2023/11/29 00:59:53;;;;;;;;;;;;;;;18.70;20.89;96832.81;5084897;28;19967;-85
2023/11/29 01:02:19;;;;;;;;;;;;;;;18.70;20.82;96826.47;5087235;28;19920;-85
2023/11/29 01:04:45;;;;;;;;;;;;;;;18.09;21.36;96831.56;5085432;28;19920;-85
2023/11/29 01:07:11;;;;;;;;;;;;;;;17.86;21.83;96835.16;5088889;28;20026;-85
2023/11/29 01:09:37;;;;;;;;;;;;;;;18.04;21.65;96835.63;5082634;28;19927;-85
2023/11/29 01:12:04;;;;;;;;;;;;;;;17.73;22.31;96846.09;5085795;28;19942;-85
2023/11/29 01:14:30;;;;;;;;;;;;;;;17.98;21.57;96845.66;5093093;28;19955;-85
2023/11/29 01:16:56;;;;;;;;;;;;;;;17.81;21.69;96852.28;5093481;28;19921;-85
2023/11/29 01:19:23;;;;;;;;;;;;;;;17.55;21.89;96845.56;5081393;28;20437;-85
2023/11/29 01:21:52;;;;;;;;;;;;;;;17.70;21.63;96844.16;5094433;28;19920;-85
2023/11/29 01:24:18;;;;;;;;;;;;;;;17.74;21.73;96850.41;5087547;28;19925;-85
2023/11/29 01:26:44;;;;;;;;;;;;;;;17.97;21.51;96846.09;5078323;28;19920;-85
2023/11/29 01:29:10;;;;;;;;;;;;;;;17.90;21.35;96858.06;5087356;28;19927;-85
2023/11/29 01:31:36;;;;;;;;;;;;;;;18.13;21.33;96851.75;5072579;28;19939;-85
2023/11/29 01:34:03;;;;;;;;;;;;;;;18.00;21.37;96859.09;5076703;28;19924;-85
2023/11/29 01:36:29;;;;;;;;;;;;;;;17.92;21.58;96864.78;5087952;28;19920;-86
2023/11/29 01:38:55;;;;;;;;;;;;;;;17.77;21.55;96863.47;5093181;28;19928;-85
2023/11/29 01:41:21;;;;;;;;;;;;;;;18.05;21.28;96859.41;5089178;28;20384;-85
2023/11/29 01:43:47;;;;;;;;;;;;;;;17.40;21.97;96865.59;5091562;28;20358;-85
2023/11/29 01:46:13;;;;;;;;;;;;;;;17.56;21.50;96866.56;5090749;28;20445;-86
2023/11/29 01:48:40;;;;;;;;;;;;;;;18.17;21.08;96867.16;5078736;28;19921;-85
2023/11/29 01:51:07;;;;;;;;;;;;;;;17.83;21.22;96867.31;5075087;28;20007;-85
2023/11/29 01:53:33;;;;;;;;;;;;;;;17.82;21.32;96870.53;5086137;28;19925;-86
2023/11/29 01:56:00;;;;;;;;;;;;;;;17.68;21.35;96867.97;5072550;28;19962;-85
2023/11/29 01:58:26;;;;;;;;;;;;;;;17.62;21.46;96866.88;5085752;28;19927;-85
2023/11/29 02:00:53;;;;;;;;;;;;;;;17.49;21.64;96868.63;5085372;28;19924;-85
2023/11/29 02:03:20;;;;;;;;;;;;;;;17.01;21.83;96880.78;5077250;28;19920;-85
2023/11/29 02:05:46;;;;;;;;;;;;;;;17.82;21.02;96876.06;5092963;28;20375;-85
2023/11/29 02:08:13;;;;;;;;;;;;;;;17.89;20.86;96873.19;5093238;28;20011;-86
2023/11/29 02:10:39;;;;;;;;;;;;;;;17.35;21.27;96872.41;5085602;28;20367;-85
2023/11/29 02:13:06;;;;;;;;;;;;;;;17.59;20.97;96885.16;5082042;28;19981;-85
2023/11/29 02:15:33;;;;;;;;;;;;;;;17.86;20.80;96887.91;5085037;28;19924;-85
2023/11/29 02:18:00;;;;;;;;;;;;;;;18.17;20.68;96896.91;5085790;28;19920;-85
2023/11/29 02:20:26;;;;;;;;;;;;;;;18.71;19.97;96890.00;5089916;28;19920;-85
2023/11/29 02:22:58;;;;;;;;;;;;;;;19.11;19.55;96882.44;5087854;28;19935;-85
2023/11/29 02:25:24;;;;;;;;;;;;;;;18.87;19.76;96886.50;5077395;28;19927;-85
2023/11/29 02:27:50;;;;;;;;;;;;;;;18.77;19.91;96890.28;5085149;28;19926;-85
2023/11/29 02:30:16;;;;;;;;;;;;;;;18.96;19.75;96886.72;5088029;28;20009;-85
2023/11/29 02:32:43;;;;;;;;;;;;;;;19.03;19.70;96879.00;5094233;28;19934;-85
2023/11/29 02:35:09;;;;;;;;;;;;;;;18.96;19.73;96886.72;5089149;28;19920;-85
2023/11/29 02:37:35;;;;;;;;;;;;;;;19.11;19.72;96893.56;5079374;28;20415;-85
2023/11/29 02:40:01;;;;;;;;;;;;;;;19.65;19.18;96889.19;5091370;28;20005;-85
2023/11/29 02:42:27;;;;;;;;;;;;;;;19.06;19.59;96899.63;5094328;28;19981;-85
2023/11/29 02:44:53;;;;;;;;;;;;;;;19.15;19.49;96892.28;5093608;28;19920;-85
2023/11/29 02:47:19;;;;;;;;;;;;;;;19.05;19.68;96890.50;5093958;28;19916;-85
2023/11/29 02:49:46;;;;;;;;;;;;;;;18.86;19.70;96893.25;5090005;28;19928;-85
2023/11/29 02:52:14;;;;;;;;;;;;;;;18.14;20.50;96908.88;5081838;28;20018;-86
2023/11/29 02:54:40;;;;;;;;;;;;;;;18.11;20.63;96913.28;5073899;28;19927;-85
2023/11/29 02:57:06;;;;;;;;;;;;;;;18.56;20.00;96908.94;5088872;28;20233;-85
2023/11/29 02:59:32;;;;;;;;;;;;;;;19.15;19.29;96899.84;5093802;28;19963;-85
2023/11/29 03:01:58;;;;;;;;;;;;;;;19.64;18.65;96906.34;5082586;28;19925;-86
2023/11/29 03:04:24;;;;;;;;;;;;;;;19.39;19.03;96911.69;5073920;28;20386;-85
2023/11/29 03:06:51;;;;;;;;;;;;;;;19.29;18.95;96910.66;5073275;28;19963;-85
2023/11/29 03:09:17;;;;;;;;;;;;;;;18.56;19.58;96922.03;5089860;28;19927;-85
2023/11/29 03:11:43;;;;;;;;;;;;;;;18.29;19.73;96922.09;5090778;28;19923;-86
2023/11/29 03:14:09;;;;;;;;;;;;;;;17.58;20.49;96927.97;5081862;28;19923;-85
2023/11/29 03:16:35;;;;;;;;;;;;;;;17.47;20.61;96930.09;5088602;28;19917;-85
2023/11/29 03:19:01;;;;;;;;;;;;;;;17.80;20.40;96929.25;5085782;28;20376;-86
2023/11/29 03:21:28;;;;;;;;;;;;;;;18.08;20.23;96930.78;5091223;28;20027;-86
2023/11/29 03:23:54;;;;;;;;;;;;;;;18.25;19.87;96929.69;5093694;28;19920;-86
2023/11/29 03:26:21;;;;;;;;;;;;;;;18.70;19.57;96935.69;5092539;28;19954;-86
2023/11/29 03:28:47;;;;;;;;;;;;;;;18.81;19.40;96938.28;5091970;28;19923;-86
2023/11/29 03:31:13;;;;;;;;;;;;;;;18.97;19.15;96935.59;5092217;28;20048;-86
2023/11/29 03:33:39;;;;;;;;;;;;;;;18.96;19.03;96925.66;5093502;28;19917;-85
2023/11/29 03:36:07;;;;;;;;;;;;;;;18.67;19.42;96939.31;5081722;28;20402;-85
2023/11/29 03:38:33;;;;;;;;;;;;;;;18.71;19.40;96948.38;5086551;28;20035;-85
2023/11/29 03:40:59;;;;;;;;;;;;;;;19.12;19.00;96945.19;5091735;28;19927;-85
2023/11/29 03:43:25;;;;;;;;;;;;;;;19.01;19.10;96953.78;5093582;28;19994;-85
2023/11/29 03:45:51;;;;;;;;;;;;;;;19.31;18.69;96961.09;5093505;28;19912;-85
2023/11/29 03:48:17;;;;;;;;;;;;;;;18.98;18.84;96964.94;5093364;28;20428;-85
2023/11/29 03:50:44;;;;;;;;;;;;;;;18.97;18.87;96963.41;5092979;28;19931;-86
2023/11/29 03:53:10;;;;;;;;;;;;;;;18.69;19.23;96973.06;5092515;28;20372;-86
2023/11/29 03:55:36;;;;;;;;;;;;;;;18.51;19.38;96967.00;5091856;28;19924;-86
2023/11/29 03:58:03;;;;;;;;;;;;;;;18.36;19.62;96969.22;5092867;28;19931;-86
2023/11/29 04:00:29;;;;;;;;;;;;;;;18.26;19.61;96963.81;5093319;28;20303;-86
2023/11/29 04:02:55;;;;;;;;;;;;;;;18.40;19.67;96981.06;5093079;28;19982;-86
2023/11/29 04:05:23;;;;;;;;;;;;;;;18.44;19.69;96964.31;5092643;28;19920;-86
2023/11/29 04:07:49;;;;;;;;;;;;;;;18.44;19.63;96975.44;5093697;28;19927;-85
2023/11/29 04:10:15;;;;;;;;;;;;;;;18.52;19.50;96974.13;5087817;28;19934;-86
2023/11/29 04:12:41;;;;;;;;;;;;;;;18.87;19.04;96978.28;5083072;28;19928;-86
2023/11/29 04:15:07;;;;;;;;;;;;;;;19.11;18.74;96977.78;5082563;28;19924;-85
2023/11/29 04:17:33;;;;;;;;;;;;;;;18.89;18.97;96979.44;5085911;28;19970;-85
2023/11/29 04:19:59;;;;;;;;;;;;;;;18.54;19.29;96989.19;5086933;28;19920;-86
2023/11/29 04:22:26;;;;;;;;;;;;;;;17.93;20.00;96984.97;5093097;28;19974;-87
2023/11/29 04:24:52;;;;;;;;;;;;;;;17.69;20.21;96986.13;5086136;28;20475;-86
2023/11/29 04:27:18;;;;;;;;;;;;;;;18.19;19.57;96997.28;5085700;28;19929;-86
2023/11/29 04:29:44;;;;;;;;;;;;;;;18.35;19.42;97006.53;5077166;28;19969;-87
2023/11/29 04:32:10;;;;;;;;;;;;;;;17.66;20.18;97004.41;5060188;28;19924;-86
2023/11/29 04:34:36;;;;;;;;;;;;;;;17.54;20.42;97004.16;5092984;28;19938;-86
2023/11/29 04:37:02;;;;;;;;;;;;;;;17.14;20.87;97006.59;5073515;28;19927;-86
2023/11/29 04:39:28;;;;;;;;;;;;;;;16.82;21.31;97008.94;5096719;28;19982;-86
2023/11/29 04:41:54;;;;;;;;;;;;;;;17.16;20.75;97015.28;5078825;28;19917;-87
2023/11/29 04:44:21;;;;;;;;;;;;;;;16.77;21.14;97020.47;5093207;28;19917;-86
2023/11/29 04:46:47;;;;;;;;;;;;;;;16.49;21.69;97015.94;5092225;28;20382;-86
2023/11/29 04:49:13;;;;;;;;;;;;;;;16.37;21.76;97018.41;5096609;28;19923;-86
2023/11/29 04:51:40;;;;;;;;;;;;;;;15.94;22.28;97028.22;5097004;28;19920;-86
2023/11/29 04:54:06;;;;;;;;;;;;;;;16.40;21.86;97032.25;5098012;28;19934;-87
2023/11/29 04:56:32;;;;;;;;;;;;;;;16.94;20.94;97021.47;5095408;28;20010;-85
2023/11/29 04:58:58;;;;;;;;;;;;;;;16.45;21.31;97026.25;5092963;28;19917;-85
2023/11/29 05:01:24;;;;;;;;;;;;;;;16.13;21.66;97027.69;5091412;28;19920;-85
2023/11/29 05:03:50;;;;;;;;;;;;;;;16.92;20.80;97024.66;5076324;28;19978;-86
2023/11/29 05:06:16;;;;;;;;;;;;;;;16.23;21.80;97018.50;5077578;28;20008;-85
2023/11/29 05:08:42;;;;;;;;;;;;;;;16.13;21.91;97033.22;5096437;28;19924;-85
2023/11/29 05:11:09;;;;;;;;;;;;;;;16.46;21.52;97038.91;5093349;28;19935;-86
2023/11/29 05:13:35;;;;;;;;;;;;;;;16.74;21.40;97037.09;5074099;28;20364;-86
2023/11/29 05:16:01;;;;;;;;;;;;;;;16.36;21.81;97033.47;5084454;28;19943;-86
2023/11/29 05:18:27;;;;;;;;;;;;;;;15.81;22.21;97037.00;5088901;28;19928;-86
2023/11/29 05:20:53;;;;;;;;;;;;;;;15.74;22.29;97033.47;5082646;28;19924;-89
2023/11/29 05:23:19;;;;;;;;;;;;;;;16.64;21.45;97029.69;5084740;28;19931;-85
2023/11/29 05:25:46;;;;;;;;;;;;;;;16.45;21.50;97034.56;5087977;28;20263;-87
2023/11/29 05:28:12;;;;;;;;;;;;;;;16.76;21.20;97045.78;5088583;28;19928;-88
2023/11/29 05:30:38;;;;;;;;;;;;;;;16.56;21.32;97043.63;5089873;28;20286;-87
2023/11/29 05:33:07;;;;;;;;;;;;;;;16.11;21.68;97064.09;5089824;28;20023;-87
2023/11/29 05:35:33;;;;;;;;;;;;;;;15.63;22.29;97063.16;5080583;28;20354;-87
2023/11/29 05:37:59;;;;;;;;;;;;;;;15.63;22.34;97060.41;5092455;28;19956;-87
2023/11/29 05:40:25;;;;;;;;;;;;;;;15.78;22.20;97065.47;5082809;28;20391;-84
2023/11/29 05:42:52;;;;;;;;;;;;;;;14.33;23.98;97072.44;5088995;28;19916;-86
2023/11/29 05:45:18;;;;;;;;;;;;;;;15.16;22.86;97073.59;5079608;28;19928;-85
2023/11/29 05:47:44;;;;;;;;;;;;;;;15.38;22.42;97068.75;5076047;28;19916;-85
2023/11/29 05:50:11;;;;;;;;;;;;;;;14.68;22.97;97083.50;5084169;28;19928;-84
2023/11/29 05:52:37;;;;;;;;;;;;;;;13.18;25.39;97079.16;5067303;28;19936;-84
2023/11/29 05:55:03;;;;;;;;;;;;;;;13.40;24.82;97087.16;5082436;28;19970;-86
2023/11/29 05:57:29;;;;;;;;;;;;;;;14.57;23.20;97104.03;5085064;28;19920;-86
2023/11/29 05:59:56;;;;;;;;;;;;;;;14.19;23.81;97102.78;5087762;28;19920;-87
2023/11/29 06:02:22;;;;;;;;;;;;;;;13.69;24.65;97096.34;5084740;28;20411;-85
2023/11/29 06:04:49;;;;;;;;;;;;;;;14.61;23.38;97102.84;5080453;28;20007;-87
2023/11/29 06:07:15;;;;;;;;;;;;;;;14.11;23.86;97093.69;5083782;28;20648;-84
2023/11/29 06:09:41;;;;;;;;;;;;;;;14.61;22.95;97107.59;5087239;28;19921;-84
2023/11/29 06:12:08;;;;;;;;;;;;;;;14.31;23.50;97113.47;5085065;28;19920;-84
2023/11/29 06:14:34;;;;;;;;;;;;;;;14.64;22.97;97113.09;5092149;28;19923;-84
2023/11/29 06:17:00;;;;;;;;;;;;;;;15.04;22.37;97117.44;5095075;28;19916;-84
2023/11/29 06:19:26;;;;;;;;;;;;;;;15.08;22.36;97116.22;5094296;28;19927;-84
2023/11/29 06:21:54;;;;;;;;;;;;;;;14.72;22.63;97116.66;5094123;28;20372;-84
2023/11/29 06:24:20;;;;;;;;;;;;;;;14.16;23.45;97131.16;5076341;28;19950;-85
2023/11/29 06:26:46;;;;;;;;;;;;;;;14.67;22.96;97134.41;5087456;28;19928;-85
2023/11/29 06:29:12;;;;;;;;;;;;;;;15.90;21.72;97136.19;5086162;28;19966;-85
2023/11/29 06:31:38;;;;;;;;;;;;;;;15.88;21.34;97136.59;5094777;28;19947;-85
2023/11/29 06:34:07;;;;;;;;;;;;;;;16.51;20.75;97146.56;5093835;28;19916;-84
2023/11/29 06:36:34;;;;;;;;;;;;;;;16.94;20.31;97141.47;5094083;28;19920;-84
2023/11/29 06:39:01;;;;;;;;;;;;;;;15.99;21.03;97139.28;5088064;28;20257;-85
2023/11/29 06:41:27;;;;;;;;;;;;;;;15.54;21.75;97149.34;5087012;28;19920;-84
2023/11/29 06:43:53;;;;;;;;;;;;;;;15.57;21.68;97133.91;5086314;28;19947;-83
2023/11/29 06:46:21;;;;;;;;;;;;;;;16.33;20.94;97136.75;5086167;28;20014;-85
2023/11/29 06:48:47;;;;;;;;;;;;;;;16.26;21.17;97139.56;5094223;28;19965;-84
2023/11/29 06:51:14;;;;;;;;;;;;;;;17.31;19.83;97149.06;5094368;28;19927;-86
2023/11/29 06:53:40;;;;;;;;;;;;;;;16.17;20.94;97164.16;5093394;28;19920;-85
2023/11/29 06:56:06;;;;;;;;;;;;;;;15.24;21.69;97160.84;5093059;28;19946;-85
2023/11/29 06:58:32;;;;;;;;;;;;;;;14.82;22.54;97168.38;5091714;28;19916;-85
2023/11/29 07:00:58;;;;;;;;;;;;;;;15.08;22.30;97162.44;5091310;28;20050;-84
2023/11/29 07:03:29;;;;;;;;;;;;;;;15.30;21.73;97169.53;5092003;28;19920;-84
2023/11/29 07:05:56;;;;;;;;;;;;;;;15.69;21.10;97156.41;5091772;28;19946;-85
2023/11/29 07:08:23;;;;;;;;;;;;;;;15.61;21.47;97162.38;5091693;28;19931;-84
2023/11/29 07:10:50;;;;;;;;;;;;;;;16.12;20.83;97159.81;5090520;28;19999;-84
2023/11/29 07:13:16;;;;;;;;;;;;;;;16.36;20.50;97166.41;5074190;28;19927;-84
2023/11/29 07:15:42;;;;;;;;;;;;;;;16.29;20.52;97167.22;5092517;28;20364;-84
2023/11/29 07:18:08;;;;;;;;;;;;;;;16.36;20.45;97169.97;5083456;28;19916;-84
2023/11/29 07:20:34;;;;;;;;;;;;;;;16.94;19.87;97171.19;5086316;28;19927;-84
2023/11/29 07:23:00;;;;;;;;;;;;;;;17.38;19.61;97170.41;5091715;28;19924;-84
2023/11/29 07:25:26;;;;;;;;;;;;;;;17.63;19.41;97174.53;5092079;28;19942;-84
2023/11/29 07:27:52;;;;;;;;;;;;;;;17.42;19.42;97176.69;5093445;28;19916;-84
2023/11/29 07:30:19;;;;;;;;;;;;;;;16.27;20.69;97182.66;5093365;28;20010;-84
2023/11/29 07:32:45;;;;;;;;;;;;;;;15.32;21.78;97186.50;5093709;28;19916;-84
2023/11/29 07:35:12;;;;;;;;;;;;;;;15.11;22.05;97192.84;5083135;28;19925;-84
2023/11/29 07:37:38;;;;;;;;;;;;;;;15.69;21.33;97199.91;5073051;28;19964;-84
2023/11/29 07:40:04;;;;;;;;;;;;;;;17.27;19.79;97192.69;5079078;28;19965;-84
2023/11/29 07:42:31;;;;;;;;;;;;;;;18.39;18.89;97187.13;5093567;28;19941;-84
2023/11/29 07:44:57;;;;;;;;;;;;;;;18.26;18.75;97194.44;5093399;28;19923;-84
2023/11/29 07:47:23;;;;;;;;;;;;;;;17.00;20.03;97192.53;5093470;28;19986;-84
2023/11/29 07:49:49;;;;;;;;;;;;;;;17.34;19.51;97194.63;5092374;28;19916;-84
2023/11/29 07:52:16;;;;;;;;;;;;;;;18.06;19.08;97188.75;5080981;28;20057;-84
2023/11/29 07:54:42;;;;;;;;;;;;;;;18.30;18.46;97195.16;5074828;28;19920;-84
2023/11/29 07:57:08;;;;;;;;;;;;;;;17.55;19.38;97202.78;5073944;28;20026;-84
2023/11/29 07:59:34;;;;;;;;;;;;;;;15.66;21.92;97209.78;5074122;28;20376;-84
2023/11/29 08:02:00;;;;;;;;;;;;;;;15.72;21.65;97204.66;5092952;28;19927;-84
2023/11/29 08:04:27;;;;;;;;;;;;;;;16.24;20.93;97208.41;5093195;28;19916;-84
2023/11/29 08:06:53;;;;;;;;;;;;;;;13.77;24.66;97219.28;5093198;28;19974;-84
2023/11/29 08:09:19;;;;;;;;;;;;;;;14.60;22.68;97210.97;5081429;28;20066;-84
2023/11/29 08:11:45;;;;;;;;;;;;;;;15.77;21.44;97216.09;5095890;28;19920;-84
2023/11/29 08:14:11;;;;;;;;;;;;;;;16.92;20.58;97209.63;5097573;28;19916;-84
2023/11/29 08:16:37;;;;;;;;;;;;;;;16.17;20.97;97225.88;5096942;28;19965;-84
2023/11/29 08:19:04;;;;;;;;;;;;;;;16.32;20.66;97221.81;5096425;28;20368;-84
2023/11/29 08:21:31;;;;;;;;;;;;;;;15.51;21.82;97230.38;5096339;28;19920;-84
2023/11/29 08:23:57;;;;;;;;;;;;;;;16.16;20.74;97213.19;5078841;28;19986;-85
2023/11/29 08:26:23;;;;;;;;;;;;;;;16.64;20.46;97229.97;5084372;28;19969;-84
2023/11/29 08:28:50;;;;;;;;;;;;;;;16.64;20.69;97232.00;5088540;28;20380;-84
2023/11/29 08:31:16;;;;;;;;;;;;;;;17.21;19.77;97228.41;5097564;28;19944;-85
2023/11/29 08:33:42;;;;;;;;;;;;;;;16.92;20.21;97232.59;5079456;28;19920;-84
2023/11/29 08:36:11;;;;;;;;;;;;;;;15.47;22.20;97235.13;5099445;28;19920;-84
2023/11/29 08:38:38;;;;;;;;;;;;;;;15.39;21.93;97241.81;5096252;28;19935;-85
2023/11/29 08:41:04;;;;;;;;;;;;;;;14.86;22.97;97241.81;5086024;28;19929;-84
2023/11/29 08:43:30;;;;;;;;;;;;;;;15.84;21.64;97243.75;5087741;28;19956;-84
2023/11/29 08:45:56;;;;;;;;;;;;;;;16.26;21.03;97233.72;5095856;28;19920;-84
2023/11/29 08:48:22;;;;;;;;;;;;;;;16.69;20.48;97239.84;5097043;28;19977;-84
2023/11/29 08:50:49;;;;;;;;;;;;;;;16.56;20.76;97237.56;5096155;28;19955;-85
2023/11/29 08:53:15;;;;;;;;;;;;;;;16.70;20.66;97233.94;5094470;28;20476;-85
2023/11/29 08:55:44;;;;;;;;;;;;;;;16.92;20.68;97235.34;5096438;28;20370;-84
2023/11/29 08:58:13;;;;;;;;;;;;;;;18.37;19.37;97231.19;5096597;28;19946;-85
2023/11/29 09:00:41;;;;;;;;;;;;;;;19.64;18.27;97234.91;5063830;28;19939;-85
2023/11/29 09:03:10;;;;;;;;;;;;;;;20.41;17.24;97238.25;5096077;28;19943;-85
2023/11/29 09:05:39;;;;;;;;;;;;;;;20.86;16.81;97230.91;5096103;28;19916;-85
2023/11/29 09:08:05;;;;;;;;;;;;;;;20.19;17.07;97234.25;5093180;28;19920;-85
2023/11/29 09:10:31;;;;;;;;;;;;;;;19.77;17.32;97238.66;5076388;28;20395;-85
2023/11/29 09:12:57;;;;;;;;;;;;;;;20.67;16.55;97229.72;5093973;28;19924;-85
2023/11/29 09:15:23;;;;;;;;;;;;;;;21.44;16.21;97233.94;5096179;28;20412;-84
2023/11/29 09:17:50;;;;;;;;;;;;;;;22.82;15.28;97228.19;5079828;28;19924;-85
2023/11/29 09:20:16;;;;;;;;;;;;;;;23.78;14.57;97238.69;5075748;28;20256;-85
2023/11/29 09:22:42;;;;;;;;;;;;;;;23.98;14.39;97236.38;5089384;28;20409;-85
2023/11/29 09:25:08;;;;;;;;;;;;;;;24.09;14.10;97236.03;5096174;28;19999;-85
2023/11/29 09:27:34;;;;;;;;;;;;;;;22.49;15.32;97225.53;5095815;28;19916;-85
2023/11/29 09:30:00;;;;;;;;;;;;;;;22.01;15.37;97231.28;5096675;28;20451;-85
2023/11/29 09:32:26;;;;;;;;;;;;;;;21.76;15.75;97226.31;5094436;28;19916;-85
2023/11/29 09:34:52;;;;;;;;;;;;;;;21.80;15.81;97223.41;5093162;28;19923;-85
2023/11/29 09:37:19;;;;;;;;;;;;;;;22.87;14.97;97224.84;5093895;28;20394;-85
2023/11/29 09:39:45;;;;;;;;;;;;;;;23.77;14.68;97219.50;5094381;28;19920;-85
2023/11/29 09:42:12;;;;;;;;;;;;;;;24.41;13.96;97223.69;5094329;28;19916;-84
2023/11/29 09:44:41;;;;;;;;;;;;;;;24.00;14.19;97217.09;5076097;28;20410;-85
2023/11/29 09:47:08;;;;;;;;;;;;;;;24.10;14.07;97220.00;5093519;28;19920;-85
2023/11/29 09:49:34;;;;;;;;;;;;;;;24.42;14.01;97214.78;5094120;28;19931;-85
2023/11/29 09:52:00;;;;;;;;;;;;;;;24.50;13.84;97210.50;5092964;28;19962;-84
2023/11/29 09:54:26;;;;;;;;;;;;;;;23.54;13.99;97211.50;5093603;28;19924;-85
2023/11/29 09:56:52;;;;;;;;;;;;;;;23.77;14.22;97205.50;5093647;28;20376;-85
2023/11/29 09:59:19;;;;;;;;;;;;;;;24.00;14.16;97207.88;5094019;28;19916;-84
2023/11/29 10:01:46;;;;;;;;;;;;;;;23.93;13.83;97205.34;5089534;28;19924;-85
2023/11/29 10:04:12;;;;;;;;;;;;;;;24.25;13.92;97210.59;5093730;28;20016;-84
2023/11/29 10:06:39;;;;;;;;;;;;;;;24.85;13.21;97202.78;5090849;28;19921;-85
2023/11/29 10:09:06;;;;;;;;;;;;;;;24.82;13.06;97197.28;5089395;28;19912;-84
2023/11/29 10:11:33;;;;;;;;;;;;;;;24.96;13.21;97197.50;5095135;28;20424;-84
2023/11/29 10:13:59;;;;;;;;;;;;;;;25.20;13.01;97195.75;5094755;28;19969;-84
2023/11/29 10:16:28;;;;;;;;;;;;;;;25.45;12.63;97200.38;5095198;28;20434;-85
2023/11/29 10:18:54;;;;;;;;;;;;;;;25.47;12.56;97197.09;5094990;28;20352;-85
2023/11/29 10:21:20;;;;;;;;;;;;;;;24.95;13.13;97201.56;5094347;28;19920;-85
2023/11/29 10:23:47;;;;;;;;;;;;;;;25.24;13.12;97204.81;5092998;28;19932;-84
2023/11/29 10:26:14;;;;;;;;;;;;;;;24.65;13.32;97203.09;5093730;28;19920;-85
2023/11/29 10:28:40;;;;;;;;;;;;;;;24.63;13.14;97199.19;5094854;28;19955;-85
2023/11/29 10:31:07;;;;;;;;;;;;;;;24.92;13.06;97205.31;5100769;28;19919;-85
2023/11/29 10:33:33;;;;;;;;;;;;;;;24.98;13.00;97200.63;5115074;28;19916;-85
2023/11/29 10:36:01;;;;;;;;;;;;;;;24.94;13.09;97196.41;5115158;28;20006;-85
2023/11/29 10:38:28;;;;;;;;;;;;;;;24.85;13.10;97194.34;5114880;28;20327;-84
2023/11/29 10:40:59;;;;;;;;;;;;;;;24.95;13.25;97189.56;5100759;28;19921;-84
2023/11/29 10:43:28;;;;;;;;;;;;;;;25.02;13.24;97192.84;5074769;28;20288;-85
2023/11/29 10:46:03;;;;;;;;;;;;;;;25.09;12.97;97188.97;5091573;28;19954;-85
2023/11/29 10:48:30;;;;;;;;;;;;;;;25.42;12.83;97193.63;5114940;28;19963;-85
2023/11/29 10:50:57;;;;;;;;;;;;;;;23.85;14.23;97204.03;5109615;28;19924;-85
2023/11/29 10:53:24;;;;;;;;;;;;;;;22.96;14.19;97196.97;5094155;28;19916;-85
2023/11/29 10:55:51;;;;;;;;;;;;;;;22.81;14.42;97195.81;5094267;28;19939;-85
2023/11/29 10:58:30;;;;;;;;;;;;;;;21.39;15.58;97198.94;5090717;28;19927;-85
2023/11/29 11:00:57;;;;;;;;;;;;;;;21.09;16.59;97204.88;5077559;28;20316;-85
2023/11/29 11:03:42;;;;;;;;;;;;;;;19.46;20.08;97201.03;5089622;28;19931;-85
2023/11/29 11:06:23;;;;;;;;;;;;;;;19.82;16.88;97199.97;5090731;28;20329;-85
2023/11/29 11:08:50;;;;;;;;;;;;;;;19.25;18.04;97204.94;5094037;28;19923;-85
2023/11/29 11:11:35;;;;;;;;;;;;;;;19.38;17.37;97205.94;5093930;28;19915;-85
2023/11/29 11:14:03;;;;;;;;;;;;;;;20.39;16.83;97210.81;5094218;28;19969;-85
2023/11/29 11:16:29;;;;;;;;;;;;;;;21.11;16.00;97202.44;5090082;28;20296;-85
2023/11/29 11:18:55;;;;;;;;;;;;;;;21.29;16.12;97197.19;5075951;28;19920;-85
2023/11/29 11:21:28;;;;;;;;;;;;;;;21.73;15.57;97195.66;5093893;28;19931;-85
2023/11/29 11:23:54;;;;;;;;;;;;;;;22.41;15.26;97204.56;5093678;28;20364;-85
2023/11/29 11:26:20;;;;;;;;;;;;;;;23.44;14.65;97199.41;5093419;28;19942;-85
2023/11/29 11:28:46;;;;;;;;;;;;;;;23.65;14.28;97200.72;5092901;28;19967;-84
2023/11/29 11:31:13;;;;;;;;;;;;;;;24.13;13.93;97208.66;5093569;28;19916;-85
2023/11/29 11:33:51;;;;;;;;;;;;;;;24.75;13.45;97206.72;5079162;28;20360;-85
2023/11/29 11:36:20;;;;;;;;;;;;;;;25.03;13.66;97207.69;5080727;28;19916;-85
2023/11/29 11:38:46;;;;;;;;;;;;;;;25.35;13.19;97204.38;5093018;28;20035;-86
2023/11/29 11:41:13;;;;;;;;;;;;;;;25.65;12.79;97208.41;5093738;28;20286;-85
2023/11/29 11:43:39;;;;;;;;;;;;;;;25.73;12.96;97201.22;5093762;28;20384;-85
2023/11/29 11:46:05;;;;;;;;;;;;;;;25.97;12.63;97196.56;5099842;28;20001;-85
2023/11/29 11:48:31;;;;;;;;;;;;;;;26.16;12.46;97200.19;5082016;28;19920;-85
2023/11/29 11:50:59;;;;;;;;;;;;;;;26.28;12.49;97199.25;5082542;28;19921;-84
2023/11/29 11:53:25;;;;;;;;;;;;;;;26.35;12.17;97190.47;5080208;28;19920;-84
2023/11/29 11:55:52;;;;;;;;;;;;;;;26.09;12.62;97190.00;5080001;28;19919;-87
2023/11/29 11:58:19;;;;;;;;;;;;;;;24.83;13.47;97196.06;5078677;28;19920;-85
2023/11/29 12:00:49;;;;;;;;;;;;;;;24.62;13.20;97192.00;5074859;28;19927;-86
2023/11/29 12:03:16;;;;;;;;;;;;;;;23.47;14.27;97195.72;5101854;28;19916;-85
2023/11/29 12:05:42;;;;;;;;;;;;;;;23.70;14.41;97186.91;5081807;28;19932;-85
2023/11/29 12:08:09;;;;;;;;;;;;;;;23.09;14.75;97187.31;5080247;28;20378;-86
2023/11/29 12:10:35;;;;;;;;;;;;;;;22.48;15.83;97186.78;5096949;28;19920;-85
2023/11/29 12:13:01;;;;;;;;;;;;;;;21.52;16.35;97188.63;5098306;28;20431;-85
2023/11/29 12:15:31;;;;;;;;;;;;;;;22.15;15.58;97183.34;5088259;28;19928;-85
2023/11/29 12:17:58;;;;;;;;;;;;;;;23.28;14.78;97179.91;5091476;28;19920;-84
2023/11/29 12:20:24;;;;;;;;;;;;;;;23.07;14.95;97177.81;5096281;28;19924;-84
2023/11/29 12:22:51;;;;;;;;;;;;;;;23.02;15.58;97175.56;5093989;28;20000;-84
2023/11/29 12:25:19;;;;;;;;;;;;;;;21.47;16.38;97180.78;5076597;28;19977;-84
2023/11/29 12:27:46;;;;;;;;;;;;;;;22.64;15.39;97179.13;5099093;28;19916;-84
2023/11/29 12:30:12;;;;;;;;;;;;;;;23.02;15.19;97183.97;5100046;28;19916;-85
2023/11/29 12:32:41;;;;;;;;;;;;;;;21.54;16.25;97185.41;5079840;28;21874;-84
2023/11/29 12:35:08;;;;;;;;;;;;;;;21.80;16.19;97185.09;5099481;28;19920;-85
2023/11/29 12:37:34;;;;;;;;;;;;;;;22.22;15.69;97188.75;5099896;28;19951;-84
2023/11/29 12:40:00;;;;;;;;;;;;;;;21.68;15.87;97188.59;5098106;28;19935;-84
2023/11/29 12:42:26;;;;;;;;;;;;;;;20.81;16.57;97186.78;5079232;28;19925;-84
2023/11/29 12:44:52;;;;;;;;;;;;;;;20.51;18.74;97189.84;5084012;28;19920;-84